Airfield :
LOGIN :

Register | Disclaimer

   EN    FR    IT 

 










Legend :    VFR   Marginal VFR   IFR   Intensive IFR   Very Intensive IFR
Visi :
Ceiling :
>= 8 km
>= 3000ft
5 to 8 km
1000 to 3000 ft
1500m to 5 km
500 to 1000 ft
800 to 1500m
200 to 500 ft
< 800m
< 200 ft
Symbols :   Thunderstorms  Fog  Heavy snow  Heavy precipitations  Wind > 20 kt
SIGMETs :     Misc.  Thunderstorms  Icing  Turbulence  Mountain Waves  Volcanic Ashes







- Airport Elevation : 270 ft
- IATA code : OXF
- Download approach charts


EGTK - Oxford (Kidlington)

CURRENT METAR :
  • 201420Z 15005KT 090V220 CAVOK 26/11 Q1012

EXPIRED METARs :
  • 201350Z 18005KT CAVOK 26/11 Q1013
  • 201320Z VRB05KT CAVOK 26/11 Q1013
  • 201250Z 11004KT 060V160 CAVOK 26/11 Q1013
  • 201220Z 13005KT 050V190 CAVOK 25/11 Q1013
  • 201150Z 14004KT 100V230 CAVOK 24/11 Q1014

TAF TAF EGTK
Valid from the 20 at 15:00 until the 20 at 22:00 UTC


201354Z 2015/2022 VRB05KT 9999 FEW045
PROB30
TEMPO 2015/2022 3000 +SHRA TSRA
No reported NOTAMs for that airfield.



MET'MAP, your aeronautical weather chart ! - Copyright ORBIFLY December 2007 - Disclaimer

ORBIFLY MET'MAP TEAM :

Programming & Development : Alexandra Zaïnal
Concept & Development : Baudouin d'Aumeries
Co-Development & Prog : Marc-Olivier Méhu
Technical & hardware support : Manuel Goepfert

Contact : metmap@orbifly.com




SOURCES & CREDITS :

   NOAA